aviador You're here:

MYNN Decoded Metar

NASSAU in BAHAMAS
Report Time2017-11-19 21:00:00
UTC Time2017-11-19 21:44:32
Flight Rules vfr VFR
Wind310° at 07 kt
W.Decomp.*RWY 32: 7.0 kt HW 0.2 kt LCW
RWY 27: 4.7 kt HW 5.2 kt RCW
W.Rank310° ranks 35
Current wind is above 310° avg. (6.6)
Visibility9999 m
Phenomena:N/A
Clouds:Few 018 Hf
Scattered 045 Hf
Expected CloudBase > 2,400 ft AGL from Temp-Dew spread
CeilingNone
Temp28°C (ISA +13)
Dew Point22°C (70% RH)
Heat Index30.7°C
QNH1012 hPa
Density Alt1,890 ft
Elevation10 ft
Report Wrong Elevation
Raw Report
METAR MYNN 192100Z 31007KT 9999 FEW018 SCT045 28/22 A2989=

Extra information for MYNN:More info

Metar Taf Metar & Taf Last 4 Metars F.Rules Stats Wind Profile Meteogram Temp Stats Airport Information Weather charts Add Link Nearby VenuesMetar ALERT Operation Metar Decoded Social comments